createdAt,value
2023-03-11T00:00:25.460Z,4.33
2023-03-11T00:02:53.889Z,4.63
2023-03-11T00:05:36.363Z,4.60
2023-03-11T00:08:04.619Z,4.83
2023-03-11T00:10:42.875Z,4.77
2023-03-11T00:13:12.161Z,4.97
2023-03-11T00:15:39.552Z,4.70
2023-03-11T00:18:07.386Z,4.47
2023-03-11T00:20:38.040Z,4.40
2023-03-11T00:23:06.734Z,4.27
2023-03-11T00:25:35.068Z,4.17
2023-03-11T00:28:01.924Z,4.03
2023-03-11T00:30:29.547Z,4.57
2023-03-11T00:32:58.543Z,4.63
2023-03-11T00:35:27.753Z,4.17
2023-03-11T00:37:57.680Z,3.97
2023-03-11T00:40:27.831Z,3.83
2023-03-11T00:42:54.760Z,4.37
2023-03-11T00:45:21.983Z,4.97
2023-03-11T00:47:48.893Z,4.77
2023-03-11T00:50:20.817Z,5.27
2023-03-11T00:52:49.041Z,4.10
2023-03-11T00:55:18.693Z,4.37
2023-03-11T00:57:45.566Z,4.30
2023-03-11T01:00:20.161Z,6.17
2023-03-11T01:02:47.098Z,4.07
2023-03-11T01:05:14.665Z,4.70
2023-03-11T01:07:41.854Z,4.10
2023-03-11T01:10:09.831Z,4.30
2023-03-11T01:12:36.777Z,5.40
2023-03-11T01:15:04.489Z,5.63
2023-03-11T01:17:31.337Z,4.00
2023-03-11T01:19:58.301Z,4.30
2023-03-11T01:22:25.242Z,4.70
2023-03-11T01:24:52.140Z,12.83
2023-03-11T01:27:19.058Z,4.27
2023-03-11T01:29:45.954Z,4.83
2023-03-11T01:32:12.897Z,4.20
2023-03-11T01:34:39.728Z,4.53
2023-03-11T01:37:06.610Z,4.57
2023-03-11T01:39:33.445Z,5.00
2023-03-11T01:42:00.307Z,4.17
2023-03-11T01:44:27.201Z,4.57
2023-03-11T01:47:14.270Z,4.30
2023-03-11T01:49:42.212Z,4.60
2023-03-11T01:52:09.804Z,4.40
2023-03-11T01:54:39.991Z,5.30
2023-03-11T01:57:12.458Z,4.17
2023-03-11T01:59:47.860Z,4.40
2023-03-11T02:02:42.367Z,4.50
2023-03-11T02:05:09.731Z,4.20
2023-03-11T02:07:39.296Z,4.33
2023-03-11T02:10:07.563Z,3.80
2023-03-11T02:12:36.920Z,4.67
2023-03-11T02:15:04.758Z,4.77
2023-03-11T02:17:32.548Z,4.00
2023-03-11T02:20:20.883Z,3.83
2023-03-11T02:22:49.501Z,4.20
2023-03-11T02:25:54.282Z,4.57
2023-03-11T02:28:22.139Z,4.07
2023-03-11T02:30:50.484Z,4.20
2023-03-11T02:33:18.746Z,4.03
2023-03-11T02:35:45.611Z,4.70
2023-03-11T02:38:12.631Z,4.23
2023-03-11T02:40:59.946Z,4.27
2023-03-11T02:43:44.754Z,7.03
2023-03-11T02:46:12.807Z,4.30
2023-03-11T02:48:40.117Z,4.70
2023-03-11T02:51:07.632Z,4.90
2023-03-11T02:53:41.663Z,5.27
2023-03-11T02:56:08.505Z,5.10
2023-03-11T02:58:35.424Z,4.57
2023-03-11T03:01:02.430Z,4.30
2023-03-11T03:03:29.344Z,4.50
2023-03-11T03:05:56.556Z,5.20
2023-03-11T03:08:23.512Z,7.00
2023-03-11T03:10:50.410Z,6.93
2023-03-11T03:13:17.490Z,4.80
2023-03-11T03:15:44.389Z,4.20
2023-03-11T03:18:11.249Z,4.13
2023-03-11T03:20:38.257Z,4.57
2023-03-11T03:23:05.286Z,4.63
2023-03-11T03:25:32.158Z,3.80
2023-03-11T03:27:58.981Z,3.50
2023-03-11T03:30:25.927Z,4.47
2023-03-11T03:32:52.827Z,5.30
2023-03-11T03:35:20.043Z,4.80
2023-03-11T03:37:47.094Z,5.50
2023-03-11T03:40:14.292Z,3.83
2023-03-11T03:42:41.171Z,5.73
2023-03-11T03:45:09.041Z,4.63
2023-03-11T03:47:36.504Z,5.33
2023-03-11T03:50:07.426Z,3.83
2023-03-11T03:52:35.977Z,3.93
2023-03-11T03:55:03.853Z,4.20
2023-03-11T03:57:30.815Z,3.80
2023-03-11T03:59:57.844Z,5.10
2023-03-11T04:02:25.062Z,8.20
2023-03-11T04:04:52.190Z,3.43
2023-03-11T04:07:19.080Z,4.03
2023-03-11T04:09:45.950Z,3.40
2023-03-11T04:12:17.547Z,4.07
2023-03-11T04:14:44.586Z,5.70
2023-03-11T04:17:12.828Z,3.57
2023-03-11T04:19:40.064Z,3.10
2023-03-11T04:22:07.391Z,3.33
2023-03-11T04:24:34.296Z,5.43
2023-03-11T04:27:01.160Z,3.43
2023-03-11T04:29:28.105Z,3.73
2023-03-11T04:31:55.063Z,5.33
2023-03-11T04:34:21.960Z,2.80
2023-03-11T04:36:52.524Z,3.77
2023-03-11T04:39:19.587Z,7.90
2023-03-11T04:41:46.433Z,5.30
2023-03-11T04:44:13.243Z,3.23
2023-03-11T04:46:40.124Z,3.03
2023-03-11T04:49:06.966Z,2.70
2023-03-11T04:51:34.646Z,2.80
2023-03-11T04:54:01.628Z,3.63
2023-03-11T04:56:28.532Z,5.20
2023-03-11T04:58:55.420Z,4.60
2023-03-11T05:01:22.411Z,3.57
2023-03-11T05:03:49.356Z,3.83
2023-03-11T05:06:16.249Z,4.57
2023-03-11T05:08:43.093Z,4.40
2023-03-11T05:11:09.983Z,2.53
2023-03-11T05:13:36.816Z,3.97
2023-03-11T05:16:04.750Z,5.77
2023-03-11T05:18:32.573Z,3.90
2023-03-11T05:20:59.533Z,7.23
2023-03-11T05:23:26.465Z,4.93
2023-03-11T05:25:53.342Z,5.30
2023-03-11T05:28:20.292Z,2.83
2023-03-11T05:30:47.283Z,4.23
2023-03-11T05:33:14.204Z,5.57
2023-03-11T05:35:41.117Z,3.13
2023-03-11T05:38:08.017Z,2.97
2023-03-11T05:40:34.916Z,5.27
2023-03-11T05:43:01.790Z,3.03
2023-03-11T05:45:28.651Z,3.43
2023-03-11T05:47:55.624Z,3.40
2023-03-11T05:50:22.598Z,8.20
2023-03-11T05:52:49.493Z,3.93
2023-03-11T05:55:16.625Z,3.63
2023-03-11T05:57:43.743Z,2.23
2023-03-11T06:00:12.434Z,2.70
2023-03-11T06:02:41.236Z,3.87
2023-03-11T06:05:11.085Z,5.53
2023-03-11T06:07:39.863Z,5.47
2023-03-11T06:10:07.720Z,2.60
2023-03-11T06:12:35.429Z,3.17
2023-03-11T06:15:02.343Z,9.40
2023-03-11T06:17:30.485Z,5.13
2023-03-11T06:19:57.500Z,3.83
2023-03-11T06:22:24.384Z,3.80
2023-03-11T06:24:51.323Z,6.70
2023-03-11T06:27:18.238Z,3.57
2023-03-11T06:29:46.626Z,11.53
2023-03-11T06:32:14.790Z,2.60
2023-03-11T06:34:41.711Z,7.47
2023-03-11T06:37:08.580Z,4.20
2023-03-11T06:39:35.445Z,2.33
2023-03-11T06:42:02.338Z,4.00
2023-03-11T06:44:29.214Z,5.30
2023-03-11T06:46:56.090Z,1.80
2023-03-11T06:49:22.977Z,4.70
2023-03-11T06:51:49.822Z,9.43
2023-03-11T06:54:16.661Z,1.67
2023-03-11T06:56:43.512Z,11.37
2023-03-11T06:59:10.523Z,3.07
2023-03-11T07:01:37.581Z,5.60
2023-03-11T07:04:04.666Z,6.10
2023-03-11T07:06:31.550Z,1.93
2023-03-11T07:08:58.721Z,5.53
2023-03-11T07:11:27.345Z,3.80
2023-03-11T07:13:55.232Z,4.30
2023-03-11T07:16:25.314Z,4.73
2023-03-11T07:18:54.697Z,4.73
2023-03-11T07:21:22.876Z,8.17
2023-03-11T07:23:57.156Z,4.07
2023-03-11T07:26:24.907Z,4.80
2023-03-11T07:28:53.864Z,3.53
2023-03-11T07:31:23.725Z,10.10
2023-03-11T07:33:51.298Z,2.60
2023-03-11T07:36:23.533Z,6.83
2023-03-11T07:38:56.752Z,11.37
2023-03-11T07:41:23.693Z,5.50
2023-03-11T07:43:53.858Z,3.67
2023-03-11T07:46:22.703Z,2.10
2023-03-11T07:48:50.873Z,4.00
2023-03-11T07:51:19.481Z,3.17
2023-03-11T07:53:47.287Z,4.57
2023-03-11T07:56:15.975Z,5.17
2023-03-11T07:58:45.646Z,4.27
2023-03-11T08:01:16.107Z,3.00
2023-03-11T08:03:44.811Z,7.03
2023-03-11T08:06:15.338Z,5.20
2023-03-11T08:08:42.462Z,2.80
2023-03-11T08:11:10.304Z,7.50
2023-03-11T08:13:37.161Z,7.80
2023-03-11T08:16:06.039Z,1.90
2023-03-11T08:18:33.557Z,2.47
2023-03-11T08:21:12.518Z,2.90
2023-03-11T08:23:39.581Z,2.43
2023-03-11T08:26:08.757Z,3.83
2023-03-11T08:28:36.243Z,2.43
2023-03-11T08:31:11.611Z,3.13
2023-03-11T08:33:38.532Z,1.30
2023-03-11T08:36:06.081Z,1.93
2023-03-11T08:38:33.372Z,3.30
2023-03-11T08:41:01.031Z,1.77
2023-03-11T08:43:28.529Z,4.90
2023-03-11T08:45:55.506Z,4.97
2023-03-11T08:48:25.441Z,3.23
2023-03-11T08:50:54.522Z,4.43
2023-03-11T08:53:22.629Z,1.33
2023-03-11T08:55:53.171Z,4.80
2023-03-11T08:58:20.572Z,6.63
2023-03-11T09:00:47.561Z,5.20
2023-03-11T09:03:14.495Z,3.33
2023-03-11T09:05:41.641Z,8.20
2023-03-11T09:08:08.713Z,8.70
2023-03-11T09:10:35.809Z,3.60
2023-03-11T09:13:02.798Z,2.53
2023-03-11T09:15:29.873Z,2.83
2023-03-11T09:17:57.018Z,10.63
2023-03-11T09:20:24.434Z,4.57
2023-03-11T09:22:51.363Z,3.20
2023-03-11T09:25:18.307Z,4.60
2023-03-11T09:27:45.176Z,2.60
2023-03-11T09:30:12.541Z,5.10
2023-03-11T09:32:39.612Z,1.43
2023-03-11T09:35:07.081Z,1.77
2023-03-11T09:37:34.777Z,1.23
2023-03-11T09:40:01.612Z,3.77
2023-03-11T09:43:07.143Z,5.40
2023-03-11T09:45:42.451Z,1.30
2023-03-11T09:48:37.419Z,3.87
2023-03-11T09:51:22.809Z,2.93
2023-03-11T09:53:56.569Z,3.27
2023-03-11T09:56:24.323Z,4.70
2023-03-11T09:59:22.223Z,5.77
2023-03-11T10:01:50.921Z,1.17
2023-03-11T10:04:27.091Z,2.27
2023-03-11T10:06:54.641Z,1.43
2023-03-11T10:09:50.159Z,4.83
2023-03-11T10:13:09.277Z,5.87
2023-03-11T10:16:13.098Z,1.20
2023-03-11T10:19:10.806Z,5.63
2023-03-11T10:21:51.030Z,1.97
2023-03-11T10:24:55.581Z,3.20
2023-03-11T10:27:29.637Z,1.13
2023-03-11T10:30:45.874Z,1.33
2023-03-11T10:33:12.764Z,3.67
2023-03-11T10:35:46.301Z,5.93
2023-03-11T10:38:20.245Z,1.47
2023-03-11T10:40:49.601Z,3.03
2023-03-11T10:43:28.973Z,2.23
2023-03-11T10:45:55.906Z,5.50
2023-03-11T10:48:23.007Z,1.17
2023-03-11T10:51:23.084Z,4.30
2023-03-11T10:53:58.122Z,3.03
2023-03-11T10:56:43.165Z,1.83
2023-03-11T10:59:28.808Z,1.40
2023-03-11T11:02:04.403Z,2.60
2023-03-11T11:04:37.181Z,2.40
2023-03-11T11:07:28.203Z,6.60
2023-03-11T11:10:19.728Z,1.70
2023-03-11T11:13:16.779Z,1.03
2023-03-11T11:15:56.906Z,1.50
2023-03-11T11:18:42.768Z,5.70
2023-03-11T11:21:15.626Z,1.10
2023-03-11T11:23:52.597Z,1.60
2023-03-11T11:26:26.121Z,1.90
2023-03-11T11:29:09.039Z,1.57
2023-03-11T11:31:41.884Z,2.17
2023-03-11T11:34:30.304Z,2.27
2023-03-11T11:36:59.728Z,3.93
2023-03-11T11:39:36.973Z,2.07
2023-03-11T11:42:04.409Z,2.63
2023-03-11T11:44:34.771Z,1.97
2023-03-11T11:47:12.324Z,1.73
2023-03-11T11:49:49.033Z,2.07
2023-03-11T11:52:25.148Z,3.47
2023-03-11T11:55:02.905Z,3.20
2023-03-11T11:57:30.073Z,3.07
2023-03-11T11:59:57.728Z,3.90
2023-03-11T12:03:04.544Z,2.00
2023-03-11T12:05:33.884Z,2.20
2023-03-11T12:08:21.973Z,4.03
2023-03-11T12:10:59.873Z,2.43
2023-03-11T12:14:13.079Z,3.10
2023-03-11T12:16:58.812Z,3.73
2023-03-11T12:19:53.332Z,2.53
2023-03-11T12:23:09.657Z,2.00
2023-03-11T12:26:07.771Z,2.73
2023-03-11T12:28:51.427Z,1.80
2023-03-11T12:31:18.931Z,3.07
2023-03-11T12:33:55.552Z,1.03
2023-03-11T12:36:44.041Z,5.80
2023-03-11T12:39:43.152Z,2.60
2023-03-11T12:42:25.327Z,3.00
2023-03-11T12:44:53.925Z,1.63
2023-03-11T12:47:25.739Z,2.23
2023-03-11T12:50:16.483Z,3.60
2023-03-11T12:52:54.553Z,1.10
2023-03-11T12:55:29.041Z,2.60
2023-03-11T12:58:06.860Z,1.50
2023-03-11T13:01:05.619Z,5.17
2023-03-11T13:03:55.821Z,3.67
2023-03-11T13:07:06.788Z,2.90
2023-03-11T13:09:33.688Z,2.40
2023-03-11T13:12:00.628Z,3.40
2023-03-11T13:14:31.075Z,1.00
2023-03-11T13:17:24.459Z,2.27
2023-03-11T13:19:55.958Z,1.17
2023-03-11T13:22:43.629Z,2.40
2023-03-11T13:26:08.799Z,3.43
2023-03-11T13:28:55.864Z,2.30
2023-03-11T13:32:20.100Z,1.67
2023-03-11T13:35:15.049Z,6.10
2023-03-11T13:37:50.667Z,1.57
2023-03-11T13:40:47.476Z,1.67
2023-03-11T13:43:23.943Z,1.47
2023-03-11T13:46:00.787Z,2.33
2023-03-11T13:48:32.308Z,1.77
2023-03-11T13:51:31.321Z,4.57
2023-03-11T13:54:22.865Z,1.00
2023-03-11T13:56:55.886Z,3.37
2023-03-11T13:59:43.064Z,1.10
2023-03-11T14:02:21.527Z,0.97
2023-03-11T14:04:52.848Z,2.37
2023-03-11T14:07:39.976Z,3.43
2023-03-11T14:10:28.894Z,1.40
2023-03-11T14:13:07.066Z,3.50
2023-03-11T14:15:46.230Z,1.10
2023-03-11T14:18:27.077Z,2.03
2023-03-11T14:20:54.274Z,2.60
2023-03-11T14:23:21.231Z,1.40
2023-03-11T14:25:48.479Z,1.23
2023-03-11T14:28:21.422Z,3.77
2023-03-11T14:30:59.684Z,3.73
2023-03-11T14:33:26.859Z,2.37
2023-03-11T14:35:56.069Z,3.00
2023-03-11T14:38:29.149Z,3.27
2023-03-11T14:41:01.606Z,2.70
2023-03-11T14:43:39.759Z,1.63
2023-03-11T14:46:08.717Z,2.30
2023-03-11T14:48:41.866Z,1.23
2023-03-11T14:51:18.622Z,2.60
2023-03-11T14:54:03.922Z,2.53
2023-03-11T14:56:32.659Z,2.13
2023-03-11T14:59:28.781Z,7.83
2023-03-11T15:01:58.146Z,1.40
2023-03-11T15:04:38.765Z,1.93
2023-03-11T15:07:06.237Z,4.73
2023-03-11T15:09:33.513Z,4.53
2023-03-11T15:12:04.893Z,1.20
2023-03-11T15:14:38.017Z,1.57
2023-03-11T15:17:39.880Z,3.50
2023-03-11T15:20:37.177Z,3.07
2023-03-11T15:23:07.717Z,2.80
2023-03-11T15:25:38.278Z,2.07
2023-03-11T15:28:36.558Z,3.43
2023-03-11T15:31:44.976Z,2.73
2023-03-11T15:34:17.516Z,4.33
2023-03-11T15:37:06.984Z,2.43
2023-03-11T15:39:44.176Z,1.33
2023-03-11T15:42:15.839Z,2.33
2023-03-11T15:45:16.259Z,2.83
2023-03-11T15:47:43.176Z,1.63
2023-03-11T15:50:24.750Z,6.40
2023-03-11T15:52:56.754Z,1.90
2023-03-11T15:55:25.547Z,2.07
2023-03-11T15:58:01.243Z,3.93
2023-03-11T16:00:28.154Z,2.30
2023-03-11T16:02:55.075Z,7.90
2023-03-11T16:05:24.481Z,3.47
2023-03-11T16:07:51.630Z,4.10
2023-03-11T16:10:28.857Z,4.50
2023-03-11T16:12:56.208Z,2.23
2023-03-11T16:15:32.889Z,2.60
2023-03-11T16:18:02.335Z,2.80
2023-03-11T16:20:58.644Z,8.77
2023-03-11T16:23:48.514Z,6.17
2023-03-11T16:26:18.073Z,7.30
2023-03-11T16:28:44.975Z,6.37
2023-03-11T16:31:11.998Z,2.37
2023-03-11T16:33:38.876Z,5.27
2023-03-11T16:36:06.248Z,2.80
2023-03-11T16:38:49.220Z,1.97
2023-03-11T16:41:17.524Z,7.03
2023-03-11T16:43:45.117Z,4.73
2023-03-11T16:46:12.916Z,3.00
2023-03-11T16:48:39.812Z,3.50
2023-03-11T16:51:06.945Z,4.40
2023-03-11T16:53:33.952Z,4.03
2023-03-11T16:56:00.966Z,10.30
2023-03-11T16:58:27.915Z,4.27
2023-03-11T17:00:54.822Z,7.47
2023-03-11T17:03:22.091Z,7.60
2023-03-11T17:05:49.758Z,3.30
2023-03-11T17:08:18.342Z,1.90
2023-03-11T17:10:47.332Z,2.60
2023-03-11T17:13:17.095Z,3.17
2023-03-11T17:15:45.872Z,2.53
2023-03-11T17:18:13.534Z,3.13
2023-03-11T17:20:43.439Z,5.77
2023-03-11T17:23:10.588Z,10.47
2023-03-11T17:25:40.815Z,11.77
2023-03-11T17:28:08.222Z,8.73
2023-03-11T17:30:37.038Z,5.13
2023-03-11T17:33:04.728Z,5.77
2023-03-11T17:35:33.802Z,3.50
2023-03-11T17:38:00.870Z,42.87
2023-03-11T17:40:29.452Z,14.90
2023-03-11T17:42:56.651Z,5.50
2023-03-11T17:45:23.525Z,6.07
2023-03-11T17:47:50.441Z,7.03
2023-03-11T17:50:17.793Z,5.93
2023-03-11T17:52:47.293Z,5.27
2023-03-11T17:55:14.301Z,5.70
2023-03-11T17:57:45.540Z,6.13
2023-03-11T18:00:15.158Z,6.70
2023-03-11T18:02:42.864Z,7.17
2023-03-11T18:05:10.338Z,9.00
2023-03-11T18:07:39.706Z,18.13
2023-03-11T18:10:07.899Z,10.17
2023-03-11T18:12:34.844Z,9.50
2023-03-11T18:15:06.449Z,11.40
2023-03-11T18:17:35.453Z,14.20
2023-03-11T18:20:02.622Z,11.13
2023-03-11T18:22:29.499Z,11.63
2023-03-11T18:24:57.766Z,8.87
2023-03-11T18:27:25.070Z,12.43
2023-03-11T18:29:52.357Z,12.07
2023-03-11T18:32:20.939Z,11.07
2023-03-11T18:34:51.444Z,18.20
2023-03-11T18:37:18.536Z,10.83
2023-03-11T18:39:45.622Z,13.90
2023-03-11T18:42:14.201Z,10.47
2023-03-11T18:44:41.888Z,13.80
2023-03-11T18:47:09.210Z,15.67
2023-03-11T18:49:36.155Z,21.53
2023-03-11T18:52:03.034Z,16.70
2023-03-11T18:54:29.996Z,21.00
2023-03-11T18:56:56.894Z,15.97
2023-03-11T18:59:23.814Z,20.17
2023-03-11T19:01:51.101Z,31.67
2023-03-11T19:04:17.985Z,37.20
2023-03-11T19:06:44.926Z,26.23
2023-03-11T19:09:12.006Z,24.77
2023-03-11T19:11:39.006Z,19.93
2023-03-11T19:14:05.909Z,16.13
2023-03-11T19:16:32.846Z,16.17
2023-03-11T19:19:00.442Z,14.00
2023-03-11T19:21:27.803Z,15.13
2023-03-11T19:23:56.567Z,17.20
2023-03-11T19:26:41.383Z,23.33
2023-03-11T19:29:10.635Z,19.93
2023-03-11T19:31:37.581Z,15.00
2023-03-11T19:34:04.661Z,15.30
2023-03-11T19:36:31.747Z,20.80
2023-03-11T19:38:58.635Z,16.17
2023-03-11T19:41:25.556Z,21.27
2023-03-11T19:43:52.494Z,18.07
2023-03-11T19:46:21.794Z,21.23
2023-03-11T19:48:48.949Z,26.73
2023-03-11T19:51:17.440Z,12.47
2023-03-11T19:53:44.569Z,12.73
2023-03-11T19:56:11.847Z,15.60
2023-03-11T19:58:40.731Z,11.13
2023-03-11T20:01:07.712Z,10.93
2023-03-11T20:03:34.624Z,17.10
2023-03-11T20:06:06.172Z,14.60
2023-03-11T20:08:36.820Z,21.07
2023-03-11T20:11:06.445Z,15.03
2023-03-11T20:13:35.531Z,26.20
2023-03-11T20:16:07.912Z,21.53
2023-03-11T20:18:36.757Z,21.77
2023-03-11T20:21:09.172Z,59.07
2023-03-11T20:23:36.405Z,102.03
2023-03-11T20:26:09.245Z,24.50
2023-03-11T20:28:36.452Z,13.70
2023-03-11T20:31:24.398Z,14.63
2023-03-11T20:33:52.316Z,14.70
2023-03-11T20:36:22.267Z,19.87
2023-03-11T20:38:50.741Z,14.37
2023-03-11T20:41:18.594Z,12.80
2023-03-11T20:43:45.739Z,21.63
2023-03-11T20:46:13.207Z,16.03
2023-03-11T20:48:42.685Z,18.73
2023-03-11T20:51:14.883Z,19.07
2023-03-11T20:53:42.423Z,18.00
2023-03-11T20:56:15.850Z,20.83
2023-03-11T20:58:44.592Z,17.03
2023-03-11T21:01:18.222Z,19.97
2023-03-11T21:03:45.433Z,19.83
2023-03-11T21:06:24.516Z,15.83
2023-03-11T21:08:54.806Z,18.20
2023-03-11T21:11:22.859Z,12.80
2023-03-11T21:13:49.968Z,15.17
2023-03-11T21:16:17.056Z,16.10
2023-03-11T21:18:47.722Z,18.57
2023-03-11T21:21:17.466Z,15.10
2023-03-11T21:23:44.611Z,17.80
2023-03-11T21:26:14.841Z,15.53
2023-03-11T21:28:46.521Z,13.63
2023-03-11T21:31:17.308Z,16.83
2023-03-11T21:33:44.776Z,26.53
2023-03-11T21:36:13.314Z,17.43
2023-03-11T21:38:40.823Z,21.40
2023-03-11T21:41:20.141Z,15.93
2023-03-11T21:43:47.904Z,29.60
2023-03-11T21:46:17.371Z,14.20
2023-03-11T21:48:44.319Z,17.43
2023-03-11T21:51:11.453Z,15.90
2023-03-11T21:53:38.517Z,13.90
2023-03-11T21:56:06.352Z,15.13
2023-03-11T21:58:33.716Z,13.40
2023-03-11T22:01:01.225Z,15.10
2023-03-11T22:03:28.892Z,13.90
2023-03-11T22:05:57.964Z,14.03
2023-03-11T22:08:25.433Z,13.93
2023-03-11T22:10:52.746Z,14.20
2023-03-11T22:13:20.068Z,13.97
2023-03-11T22:15:47.222Z,11.97
2023-03-11T22:18:14.396Z,13.07
2023-03-11T22:20:41.952Z,13.30
2023-03-11T22:23:09.726Z,17.90
2023-03-11T22:25:37.166Z,12.73
2023-03-11T22:28:04.525Z,16.03
2023-03-11T22:30:31.766Z,12.40
2023-03-11T22:32:58.735Z,10.87
2023-03-11T22:35:25.687Z,11.50
2023-03-11T22:37:52.627Z,10.10
2023-03-11T22:40:19.636Z,10.50
2023-03-11T22:42:46.517Z,9.83
2023-03-11T22:45:13.480Z,23.03
2023-03-11T22:47:40.366Z,12.87
2023-03-11T22:50:07.764Z,9.47
2023-03-11T22:52:34.701Z,9.57
2023-03-11T22:55:01.616Z,10.90
2023-03-11T22:57:28.540Z,12.00
2023-03-11T22:59:55.508Z,8.63
2023-03-11T23:02:22.502Z,10.33
2023-03-11T23:04:49.421Z,8.50
2023-03-11T23:07:17.070Z,9.57
2023-03-11T23:09:44.052Z,8.40
2023-03-11T23:12:10.993Z,8.93
2023-03-11T23:14:44.961Z,9.43
2023-03-11T23:17:12.619Z,8.30
2023-03-11T23:19:39.585Z,8.00
2023-03-11T23:22:07.067Z,25.77
2023-03-11T23:24:34.218Z,11.10
2023-03-11T23:27:04.888Z,9.03
2023-03-11T23:29:32.459Z,8.03
2023-03-11T23:31:59.317Z,7.33
2023-03-11T23:34:26.296Z,8.43
2023-03-11T23:36:53.294Z,8.23
2023-03-11T23:39:20.340Z,7.53
2023-03-11T23:41:47.373Z,8.00
2023-03-11T23:44:14.568Z,7.43
2023-03-11T23:46:41.540Z,9.20
2023-03-11T23:49:08.540Z,8.10
2023-03-11T23:51:35.611Z,7.47
2023-03-11T23:54:02.518Z,7.23
2023-03-11T23:56:29.360Z,6.77
2023-03-11T23:58:56.253Z,6.47
